Eldorado — PEEA — position and weather

sailwx.info

Track history (hours):
 
Tides and Currents Weather Stations Pressure Air Temp Water Temp Dewpoint Dewpoint Depression Visibility Wind Speed Wind Dir Waves Ship Positions

Eldorado

Last reported at 2017-Feb-19 16:24 UTC. Time now 2017-Feb-19 18:44 UTC.
Position N 18°20' W 064°37'.

Length 38 m; draft 3 m.

Type: Sailing vessel. MMSI: 244670000.

Date/timePositionNaut miles runAvg speedWind from/ knotsBaromVisibWave heightAir tempDewpointWater temp
2017-Feb-19 16:24N 18°20' W 064°37'3 3.0
2017-Feb-19 15:33N 18°22' W 064°37'3 0.1
2017-Feb-17 21:29N 18°25' W 064°36'3 2.8
2017-Feb-17 20:33N 18°22' W 064°37'1 1.0
2017-Feb-17 19:33N 18°21' W 064°36'2 1.7
2017-Feb-17 18:33N 18°23' W 064°36'2 0.1
2017-Feb-16 15:10N 18°25' W 064°36'0 0.0
2017-Feb-16 14:33N 18°25' W 064°36'0 0.0
2017-Feb-15 12:16N 18°25' W 064°36'0 0.0
2017-Feb-14 21:06N 18°25' W 064°36'3 6.1
2017-Feb-14 20:33N 18°21' W 064°36'0 0.0
2017-Feb-14 19:33N 18°21' W 064°36'2 1.6
2017-Feb-14 18:33N 18°23' W 064°37'2 2.1
2017-Feb-14 17:32N 18°25' W 064°36'2 1.1
2017-Feb-14 15:33N 18°23' W 064°36'1 1.5
2017-Feb-14 14:33N 18°21' W 064°36'3 0.2
2017-Feb-13 20:22N 18°25' W 064°36'3 3.3
2017-Feb-13 19:33N 18°22' W 064°36'1 0.8
2017-Feb-13 18:30N 18°21' W 064°36'1 0.5
2017-Feb-13 15:34N 18°23' W 064°36'1 1.4
2017-Feb-13 14:31N 18°21' W 064°36'2 2.2
2017-Feb-13 13:33N 18°24' W 064°36'  
2017-Feb-10 16:09N 18°25' W 064°36'0 0.1
2017-Feb-10 15:29N 18°25' W 064°36'2 0.7
2017-Feb-10 12:34N 18°23' W 064°36'2 1.6
2017-Feb-10 11:32N 18°21' W 064°36'0 0.0
2017-Feb-10 10:27N 18°21' W 064°36'0 0.0
2017-Feb-10 09:33N 18°21' W 064°36'0 0.0
2017-Feb-10 08:24N 18°21' W 064°36'0 0.0
2017-Feb-10 07:33N 18°21' W 064°36'0 0.0
2017-Feb-10 06:25N 18°21' W 064°36'0 0.0
2017-Feb-10 05:33N 18°21' W 064°36'0 0.0
2017-Feb-10 04:30N 18°21' W 064°36'0 0.0
2017-Feb-10 03:33N 18°21' W 064°36'0 0.0
2017-Feb-10 02:30N 18°21' W 064°36'0 0.0
2017-Feb-10 01:29N 18°21' W 064°36'0 0.0
2017-Feb-10 00:27N 18°21' W 064°36'0 0.0
2017-Feb-09 23:33N 18°21' W 064°36'0 0.0
2017-Feb-09 22:28N 18°21' W 064°36'0 0.0
2017-Feb-09 21:33N 18°21' W 064°36'0 0.0
2017-Feb-09 20:27N 18°21' W 064°36'0 0.0
2017-Feb-09 19:25N 18°21' W 064°36'0 0.0
2017-Feb-09 18:31N 18°21' W 064°36'0 0.0
2017-Feb-09 17:33N 18°21' W 064°36'0 0.0
2017-Feb-09 16:31N 18°21' W 064°36'  
Track history (hours):
 
Tides and Currents Weather Stations Pressure Air Temp Water Temp Dewpoint Dewpoint Depression Visibility Wind Speed Wind Dir Waves Ship Positions

Eldorado

Last reported at 2017-Feb-19 16:24 UTC. Time now 2017-Feb-19 18:44 UTC.
Position N 18°20' W 064°37'.

Length 38 m; draft 3 m.

Type: Sailing vessel. MMSI: 244670000.

Date/timePositionNaut miles runAvg speedWind from/ knotsBaromVisibWave heightAir tempDewpointWater temp
2017-Feb-19 16:24N 18°20' W 064°37'3 3.0
2017-Feb-19 15:33N 18°22' W 064°37'3 0.1
2017-Feb-17 21:29N 18°25' W 064°36'3 2.8
2017-Feb-17 20:33N 18°22' W 064°37'1 1.0
2017-Feb-17 19:33N 18°21' W 064°36'2 1.7
2017-Feb-17 18:33N 18°23' W 064°36'2 0.1
2017-Feb-16 15:10N 18°25' W 064°36'0 0.0
2017-Feb-16 14:33N 18°25' W 064°36'0 0.0
2017-Feb-15 12:16N 18°25' W 064°36'0 0.0
2017-Feb-14 21:06N 18°25' W 064°36'3 6.1
2017-Feb-14 20:33N 18°21' W 064°36'0 0.0
2017-Feb-14 19:33N 18°21' W 064°36'2 1.6
2017-Feb-14 18:33N 18°23' W 064°37'2 2.1
2017-Feb-14 17:32N 18°25' W 064°36'2 1.1
2017-Feb-14 15:33N 18°23' W 064°36'1 1.5
2017-Feb-14 14:33N 18°21' W 064°36'3 0.2
2017-Feb-13 20:22N 18°25' W 064°36'3 3.3
2017-Feb-13 19:33N 18°22' W 064°36'1 0.8
2017-Feb-13 18:30N 18°21' W 064°36'1 0.5
2017-Feb-13 15:34N 18°23' W 064°36'1 1.4
2017-Feb-13 14:31N 18°21' W 064°36'2 2.2
2017-Feb-13 13:33N 18°24' W 064°36'  
2017-Feb-10 16:09N 18°25' W 064°36'0 0.1
2017-Feb-10 15:29N 18°25' W 064°36'2 0.7
2017-Feb-10 12:34N 18°23' W 064°36'2 1.6
2017-Feb-10 11:32N 18°21' W 064°36'0 0.0
2017-Feb-10 10:27N 18°21' W 064°36'0 0.0
2017-Feb-10 09:33N 18°21' W 064°36'0 0.0
2017-Feb-10 08:24N 18°21' W 064°36'0 0.0
2017-Feb-10 07:33N 18°21' W 064°36'0 0.0
2017-Feb-10 06:25N 18°21' W 064°36'0 0.0
2017-Feb-10 05:33N 18°21' W 064°36'0 0.0
2017-Feb-10 04:30N 18°21' W 064°36'0 0.0
2017-Feb-10 03:33N 18°21' W 064°36'0 0.0
2017-Feb-10 02:30N 18°21' W 064°36'0 0.0
2017-Feb-10 01:29N 18°21' W 064°36'0 0.0
2017-Feb-10 00:27N 18°21' W 064°36'0 0.0
2017-Feb-09 23:33N 18°21' W 064°36'0 0.0
2017-Feb-09 22:28N 18°21' W 064°36'0 0.0
2017-Feb-09 21:33N 18°21' W 064°36'0 0.0
2017-Feb-09 20:27N 18°21' W 064°36'0 0.0
2017-Feb-09 19:25N 18°21' W 064°36'0 0.0
2017-Feb-09 18:31N 18°21' W 064°36'0 0.0
2017-Feb-09 17:33N 18°21' W 064°36'0 0.0
2017-Feb-09 16:31N 18°21' W 064°36'  

Dump ship's entire track history